KMHRKSFO

Guest
Details From KMHR - Sacramento Mather
To KSFO - San Francisco Intl
Flight Number -
Tags generated
Created
Modified
Stats Distance 76 nm / 141 km
Max Altitude 0 ft / 0 m
Waypoints 3
Social Downloads 3
Likes 0
Share VATSIM

Download

Looking for another format? Having issues loading an existing format? Contact us
Advertisement - Login to hide

Notes

Basic altitude profile: - Ascent Rate: 2500ft/min - Ascent Speed: 250kts - Cruise Altitude: 35000ft - Cruise Speed: 420kts - Descent Rate: 1500ft/min - Descent Speed: 250kts Options: - Use NATs: yes - Use PACOTS: yes - Use low airways: yes - Use high airways: yes

Route

KMHR SFO KSFO

ID Type Via Altitude Latitude Longitude Leg Dist Tot Dist Heading (true) Name
O KMHR APT - 0 ft / 0 m 38.55592˚ -121.29703˚ - 0 nm - Sacramento Mather
SFO DME - 0 ft / 0 m 37.61948˚ -122.37389˚ 75 nm 75 nm 222° / 222° SAN FRANCISCO VOR-DME
O KSFO APT - 0 ft / 0 m 37.61867˚ -122.37501˚ 0 nm 75 nm 228° / 228° San Francisco Intl

Altitude Profile

Advertisement - Login to hide

KMHR

Details ICAO KMHR (MHR)
Name Sacramento Mather
Region United States
Timezone America/Los_Angeles (UTC-8.0)
Stats Elevation 96 ft / 29 m (AMSL)
Location 38.555923° -121.297031°
Runways 2
Magnetic Variation 13.491° E

METAR

KMHR 181845Z 00000KT 10SM SKC 10/04

Decode

TAF

TAF KMHR 181732Z 1818/1918 VRB04KT P6SM SCT250= TAF KRBL 181732Z 1818/1918 33005KT P6SM BKN200

Decode

Departure Runways

ID Width Length Bearing (true) Bearing (mag) Surface Threshold Offset Overrun Length
04L 151 ft / 46 m 6,035 ft / 1,840 m 53.59° 40.10° Asphalt 0 ft / 0 m 1,001 ft / 305 m
04R 151 ft / 46 m 11,293 ft / 3,442 m 53.58° 40.09° Concrete 0 ft / 0 m 1,001 ft / 305 m
22L 151 ft / 46 m 11,293 ft / 3,442 m 233.60° 220.11° Concrete 0 ft / 0 m 1,001 ft / 305 m
22R 151 ft / 46 m 6,035 ft / 1,840 m 233.60° 220.11° Asphalt 0 ft / 0 m 1,001 ft / 305 m

KSFO

Details ICAO KSFO (SFO)
Name San Francisco Intl
Region United States
Timezone America/Los_Angeles (UTC-8.0)
Stats Elevation 13 ft / 4 m (AMSL)
Location 37.618674° -122.375008°
Runways 4
Magnetic Variation 13.463° E

METAR

KSFO 181856Z 00000KT 10SM FEW200 12/03 A3022 RMK AO2 SLP233 T01220028

Decode

TAF

TAF KSFO 181720Z 1818/1924 VRB03KT P6SM SCT250 FM182300 31006KT P6SM BKN250 FM190500 VRB03KT P6SM OVC250 FM192200 22008KT P6SM OVC100

Decode

Destination Runways

ID Width Length Bearing (true) Bearing (mag) Surface Threshold Offset Overrun Length
01L 200 ft / 61 m 7,509 ft / 2,289 m 27.70° 14.24° Asphalt 492 ft / 150 m 0 ft / 0 m
01R 200 ft / 61 m 8,907 ft / 2,715 m 27.71° 14.25° Asphalt 492 ft / 150 m 0 ft / 0 m
10L 200 ft / 61 m 11,856 ft / 3,614 m 117.89° 104.43° Asphalt 0 ft / 0 m 860 ft / 262 m
10R 200 ft / 61 m 10,589 ft / 3,228 m 117.90° 104.44° Asphalt 0 ft / 0 m 0 ft / 0 m
19L 200 ft / 61 m 8,907 ft / 2,715 m 207.72° 194.26° Asphalt 0 ft / 0 m 0 ft / 0 m
19R 200 ft / 61 m 7,509 ft / 2,289 m 207.70° 194.24° Asphalt 0 ft / 0 m 0 ft / 0 m
28L 200 ft / 61 m 10,589 ft / 3,228 m 297.92° 284.46° Asphalt 0 ft / 0 m 341 ft / 104 m
28R 200 ft / 61 m 11,856 ft / 3,614 m 297.91° 284.45° Asphalt 0 ft / 0 m 341 ft / 104 m

Approach Navaids

Runway Type Ident Frequency Range Bearing (true) Bearing (mag) Slope Elevation
19L Localiser ISIA 108.90 MHz 18 nm / 33 km 207.67° 194.20° - 10 ft / 3 m (AMSL)
19L Glidescope ISIA 108.90 MHz 10 nm / 19 km 207.71° 194.25° 2.95° 7 ft / 2 m (AMSL)
19L DME ISIA 108.90 MHz 18 nm / 33 km - - - 24 ft / 7 m (AMSL)
28L Localiser ISFO 109.55 MHz 18 nm / 33 km 297.93° 284.47° - 8 ft / 2 m (AMSL)
28L Glidescope ISFO 109.55 MHz 10 nm / 19 km 297.91° 284.45° 3.00° 9 ft / 3 m (AMSL)
28L DME ISFO 109.55 MHz 18 nm / 33 km - - - 22 ft / 7 m (AMSL)
28R Localiser IGWQ 111.70 MHz 18 nm / 33 km 297.90° 284.44° - 5 ft / 2 m (AMSL)
28R Localiser IFNP 110.75 MHz 18 nm / 33 km 294.80° 281.34° - 13 ft / 4 m (AMSL)
28R Glidescope IGWQ 111.70 MHz 10 nm / 19 km 297.90° 284.44° 3.00° 9 ft / 3 m (AMSL)
28R Glidescope IFNP 110.75 MHz 10 nm / 19 km 294.80° 281.34° 3.00° 13 ft / 4 m (AMSL)
28R DME IGWQ 111.70 MHz 18 nm / 33 km - - - 17 ft / 5 m (AMSL)
28R DME IFNP 110.75 MHz 18 nm / 33 km - - - 13 ft / 4 m (AMSL)

Popular Alternatives